sensor_id;sensor_type;location;lat;lon;timestamp;pressure;altitude;pressure_sealevel;temperature;humidity
49461;BME280;35355;49.198;-0.368;2023-04-28T00:00:24;100571.38;;;16.92;77.98
49461;BME280;35355;49.198;-0.368;2023-04-28T00:02:50;100573.31;;;16.92;78.01
49461;BME280;35355;49.198;-0.368;2023-04-28T00:05:16;100568.63;;;16.92;78.20
49461;BME280;35355;49.198;-0.368;2023-04-28T00:07:42;100578.00;;;16.91;78.13
49461;BME280;35355;49.198;-0.368;2023-04-28T00:10:07;100575.56;;;16.90;77.79
49461;BME280;35355;49.198;-0.368;2023-04-28T00:12:33;100580.56;;;16.88;78.17
49461;BME280;35355;49.198;-0.368;2023-04-28T00:14:58;100578.63;;;16.88;78.13
49461;BME280;35355;49.198;-0.368;2023-04-28T00:17:24;100575.88;;;16.88;78.24
49461;BME280;35355;49.198;-0.368;2023-04-28T00:19:49;100578.63;;;16.88;78.37
49461;BME280;35355;49.198;-0.368;2023-04-28T00:22:15;100578.09;;;16.86;78.09
49461;BME280;35355;49.198;-0.368;2023-04-28T00:24:40;100581.47;;;16.83;78.34
49461;BME280;35355;49.198;-0.368;2023-04-28T00:27:06;100585.66;;;16.80;78.51
49461;BME280;35355;49.198;-0.368;2023-04-28T00:29:31;100577.16;;;16.77;78.41
49461;BME280;35355;49.198;-0.368;2023-04-28T00:31:57;100578.00;;;16.77;78.42
49461;BME280;35355;49.198;-0.368;2023-04-28T00:34:22;100575.25;;;16.77;78.32
49461;BME280;35355;49.198;-0.368;2023-04-28T00:36:47;100570.84;;;16.76;78.28
49461;BME280;35355;49.198;-0.368;2023-04-28T00:39:14;100572.28;;;16.74;78.54
49461;BME280;35355;49.198;-0.368;2023-04-28T00:41:40;100575.34;;;16.72;78.56
49461;BME280;35355;49.198;-0.368;2023-04-28T00:44:05;100568.22;;;16.71;78.89
49461;BME280;35355;49.198;-0.368;2023-04-28T00:46:32;100561.88;;;16.71;78.59
49461;BME280;35355;49.198;-0.368;2023-04-28T00:48:58;100569.63;;;16.69;78.75
49461;BME280;35355;49.198;-0.368;2023-04-28T00:51:23;100566.34;;;16.66;78.92
49461;BME280;35355;49.198;-0.368;2023-04-28T00:53:49;100566.97;;;16.63;79.15
49461;BME280;35355;49.198;-0.368;2023-04-28T00:56:15;100570.03;;;16.62;79.06
49461;BME280;35355;49.198;-0.368;2023-04-28T00:58:41;100560.97;;;16.61;79.32
49461;BME280;35355;49.198;-0.368;2023-04-28T01:01:08;100569.22;;;16.61;79.30
49461;BME280;35355;49.198;-0.368;2023-04-28T01:03:35;100562.91;;;16.61;79.37
49461;BME280;35355;49.198;-0.368;2023-04-28T01:06:03;100560.44;;;16.59;79.50
49461;BME280;35355;49.198;-0.368;2023-04-28T01:08:29;100564.84;;;16.60;79.26
49461;BME280;35355;49.198;-0.368;2023-04-28T01:10:55;100567.09;;;16.58;79.44
49461;BME280;35355;49.198;-0.368;2023-04-28T01:13:21;100560.25;;;16.56;79.60
49461;BME280;35355;49.198;-0.368;2023-04-28T01:15:46;100562.50;;;16.54;79.80
49461;BME280;35355;49.198;-0.368;2023-04-28T01:18:12;100566.06;;;16.54;79.73
49461;BME280;35355;49.198;-0.368;2023-04-28T01:20:37;100563.31;;;16.54;80.00
49461;BME280;35355;49.198;-0.368;2023-04-28T01:23:03;100564.72;;;16.52;80.22
49461;BME280;35355;49.198;-0.368;2023-04-28T01:25:28;100559.53;;;16.50;80.03
49461;BME280;35355;49.198;-0.368;2023-04-28T01:27:54;100557.91;;;16.49;80.26
49461;BME280;35355;49.198;-0.368;2023-04-28T01:30:19;100562.59;;;16.48;80.19
49461;BME280;35355;49.198;-0.368;2023-04-28T01:32:45;100553.53;;;16.48;80.45
49461;BME280;35355;49.198;-0.368;2023-04-28T01:35:10;100552.69;;;16.47;80.55
49461;BME280;35355;49.198;-0.368;2023-04-28T01:37:35;100553.53;;;16.48;80.36
49461;BME280;35355;49.198;-0.368;2023-04-28T01:40:01;100550.75;;;16.48;80.70
49461;BME280;35355;49.198;-0.368;2023-04-28T01:42:26;100540.06;;;16.46;80.56
49461;BME280;35355;49.198;-0.368;2023-04-28T01:44:51;100540.56;;;16.48;80.69
49461;BME280;35355;49.198;-0.368;2023-04-28T01:47:17;100545.75;;;16.50;80.75
49461;BME280;35355;49.198;-0.368;2023-04-28T01:49:42;100539.13;;;16.51;80.56
49461;BME280;35355;49.198;-0.368;2023-04-28T01:52:08;100541.88;;;16.51;80.56
49461;BME280;35355;49.198;-0.368;2023-04-28T01:54:33;100531.66;;;16.52;80.61
49461;BME280;35355;49.198;-0.368;2023-04-28T01:56:58;100539.13;;;16.51;80.65
49461;BME280;35355;49.198;-0.368;2023-04-28T01:59:24;100539.44;;;16.49;80.53
49461;BME280;35355;49.198;-0.368;2023-04-28T02:01:49;100535.34;;;16.47;80.84
49461;BME280;35355;49.198;-0.368;2023-04-28T02:04:14;100540.34;;;16.45;80.55
49461;BME280;35355;49.198;-0.368;2023-04-28T02:06:40;100539.84;;;16.43;80.70
49461;BME280;35355;49.198;-0.368;2023-04-28T02:09:06;100537.59;;;16.45;80.69
49461;BME280;35355;49.198;-0.368;2023-04-28T02:11:31;100540.06;;;16.46;80.57
49461;BME280;35355;49.198;-0.368;2023-04-28T02:13:57;100536.16;;;16.47;80.54
49461;BME280;35355;49.198;-0.368;2023-04-28T02:16:22;100540.06;;;16.46;80.66
49461;BME280;35355;49.198;-0.368;2023-04-28T02:18:47;100548.00;;;16.48;80.56
49461;BME280;35355;49.198;-0.368;2023-04-28T02:21:13;100548.31;;;16.46;80.47
49461;BME280;35355;49.198;-0.368;2023-04-28T02:23:38;100550.22;;;16.46;80.57
49461;BME280;35355;49.198;-0.368;2023-04-28T02:26:05;100548.63;;;16.45;80.64
49461;BME280;35355;49.198;-0.368;2023-04-28T02:28:30;100547.78;;;16.44;80.40
49461;BME280;35355;49.198;-0.368;2023-04-28T02:31:09;100553.09;;;16.41;80.36
49461;BME280;35355;49.198;-0.368;2023-04-28T02:33:36;100547.28;;;16.42;80.45
49461;BME280;35355;49.198;-0.368;2023-04-28T02:36:03;100556.34;;;16.43;80.43
49461;BME280;35355;49.198;-0.368;2023-04-28T02:38:29;100547.78;;;16.44;81.01
49461;BME280;35355;49.198;-0.368;2023-04-28T02:43:24;100559.13;;;16.43;80.96
49461;BME280;35355;49.198;-0.368;2023-04-28T02:45:49;100553.91;;;16.41;80.87
49461;BME280;35355;49.198;-0.368;2023-04-28T02:48:14;100563.00;;;16.42;81.06
49461;BME280;35355;49.198;-0.368;2023-04-28T02:50:40;100557.81;;;16.40;81.09
49461;BME280;35355;49.198;-0.368;2023-04-28T02:53:05;100553.91;;;16.41;80.89
49461;BME280;35355;49.198;-0.368;2023-04-28T02:55:30;100564.13;;;16.41;80.84
49461;BME280;35355;49.198;-0.368;2023-04-28T02:57:56;100562.19;;;16.41;80.99
49461;BME280;35355;49.198;-0.368;2023-04-28T03:00:21;100561.88;;;16.43;80.79
49461;BME280;35355;49.198;-0.368;2023-04-28T03:02:47;100565.47;;;16.43;81.02
49461;BME280;35355;49.198;-0.368;2023-04-28T03:05:12;100568.22;;;16.43;81.11
49461;BME280;35355;49.198;-0.368;2023-04-28T03:07:37;100563.00;;;16.42;81.14
49461;BME280;35355;49.198;-0.368;2023-04-28T03:10:03;100550.84;;;16.43;81.00
49461;BME280;35355;49.198;-0.368;2023-04-28T03:12:28;100552.50;;;16.44;80.79
49461;BME280;35355;49.198;-0.368;2023-04-28T03:14:54;100551.69;;;16.43;80.98
49461;BME280;35355;49.198;-0.368;2023-04-28T03:17:20;100550.84;;;16.43;80.89
49461;BME280;35355;49.198;-0.368;2023-04-28T03:19:45;100555.56;;;16.42;80.75
49461;BME280;35355;49.198;-0.368;2023-04-28T03:22:10;100550.84;;;16.43;80.88
49461;BME280;35355;49.198;-0.368;2023-04-28T03:24:36;100544.22;;;16.44;80.87
49461;BME280;35355;49.198;-0.368;2023-04-28T03:27:01;100546.97;;;16.44;80.88
49461;BME280;35355;49.198;-0.368;2023-04-28T03:29:27;100552.50;;;16.44;80.90
49461;BME280;35355;49.198;-0.368;2023-04-28T03:31:53;100550.84;;;16.43;80.85
49461;BME280;35355;49.198;-0.368;2023-04-28T03:34:18;100546.47;;;16.42;80.86
49461;BME280;35355;49.198;-0.368;2023-04-28T03:36:44;100547.59;;;16.41;80.73
49461;BME280;35355;49.198;-0.368;2023-04-28T03:39:09;100551.47;;;16.40;80.92
49461;BME280;35355;49.198;-0.368;2023-04-28T03:41:34;100560.56;;;16.40;80.68
49461;BME280;35355;49.198;-0.368;2023-04-28T03:44:00;100562.47;;;16.40;80.61
49461;BME280;35355;49.198;-0.368;2023-04-28T03:46:25;100555.84;;;16.41;80.69
49461;BME280;35355;49.198;-0.368;2023-04-28T03:48:51;100549.25;;;16.42;80.77
49461;BME280;35355;49.198;-0.368;2023-04-28T03:51:17;100549.25;;;16.42;80.50
49461;BME280;35355;49.198;-0.368;2023-04-28T03:53:42;100546.97;;;16.44;80.56
49461;BME280;35355;49.198;-0.368;2023-04-28T03:56:08;100556.06;;;16.44;80.49
49461;BME280;35355;49.198;-0.368;2023-04-28T03:58:34;100563.19;;;16.45;80.65
49461;BME280;35355;49.198;-0.368;2023-04-28T04:00:59;100561.56;;;16.44;80.59
49461;BME280;35355;49.198;-0.368;2023-04-28T04:03:25;100562.09;;;16.46;80.53
49461;BME280;35355;49.198;-0.368;2023-04-28T04:05:51;100564.53;;;16.48;80.55
49461;BME280;35355;49.198;-0.368;2023-04-28T04:08:17;100567.78;;;16.50;80.56
49461;BME280;35355;49.198;-0.368;2023-04-28T04:10:43;100571.06;;;16.52;80.67
49461;BME280;35355;49.198;-0.368;2023-04-28T04:13:08;100566.38;;;16.53;80.51
49461;BME280;35355;49.198;-0.368;2023-04-28T04:15:34;100575.13;;;16.55;80.42
49461;BME280;35355;49.198;-0.368;2023-04-28T04:17:59;100576.78;;;16.56;80.20
49461;BME280;35355;49.198;-0.368;2023-04-28T04:20:25;100574.81;;;16.56;80.43
49461;BME280;35355;49.198;-0.368;2023-04-28T04:22:50;100572.06;;;16.56;80.21
49461;BME280;35355;49.198;-0.368;2023-04-28T04:25:16;100576.78;;;16.56;80.24
49461;BME280;35355;49.198;-0.368;2023-04-28T04:27:41;100572.06;;;16.56;80.38
49461;BME280;35355;49.198;-0.368;2023-04-28T04:30:07;100577.59;;;16.56;80.36
49461;BME280;35355;49.198;-0.368;2023-04-28T04:32:32;100576.78;;;16.56;80.32
49461;BME280;35355;49.198;-0.368;2023-04-28T04:34:58;100579.22;;;16.57;80.28
49461;BME280;35355;49.198;-0.368;2023-04-28T04:37:23;100576.78;;;16.56;80.27
49461;BME280;35355;49.198;-0.368;2023-04-28T04:39:48;100572.69;;;16.53;80.40
49461;BME280;35355;49.198;-0.368;2023-04-28T04:42:14;100589.22;;;16.53;80.42
49461;BME280;35355;49.198;-0.368;2023-04-28T04:44:39;100594.72;;;16.53;80.64
49461;BME280;35355;49.198;-0.368;2023-04-28T04:47:04;100602.69;;;16.55;80.34
49461;BME280;35355;49.198;-0.368;2023-04-28T04:49:30;100599.44;;;16.53;80.41
49461;BME280;35355;49.198;-0.368;2023-04-28T04:51:55;100600.25;;;16.53;80.42
49461;BME280;35355;49.198;-0.368;2023-04-28T04:54:21;100601.88;;;16.54;80.35
49461;BME280;35355;49.198;-0.368;2023-04-28T04:56:46;100603.53;;;16.55;80.44
49461;BME280;35355;49.198;-0.368;2023-04-28T04:59:12;100602.38;;;16.56;80.61
49461;BME280;35355;49.198;-0.368;2023-04-28T05:01:37;100605.13;;;16.56;80.43
49461;BME280;35355;49.198;-0.368;2023-04-28T05:04:03;100603.53;;;16.55;80.35
49461;BME280;35355;49.198;-0.368;2023-04-28T05:06:28;100609.03;;;16.55;80.35
49461;BME280;35355;49.198;-0.368;2023-04-28T05:08:53;100608.50;;;16.53;80.51
49461;BME280;35355;49.198;-0.368;2023-04-28T05:11:20;100601.06;;;16.54;80.57
49461;BME280;35355;49.198;-0.368;2023-04-28T05:13:46;100609.66;;;16.52;80.28
49461;BME280;35355;49.198;-0.368;2023-04-28T05:16:11;100607.19;;;16.51;80.65
49461;BME280;35355;49.198;-0.368;2023-04-28T05:18:37;100613.00;;;16.49;80.52
49461;BME280;35355;49.198;-0.368;2023-04-28T05:21:02;100617.38;;;16.50;80.47
49461;BME280;35355;49.198;-0.368;2023-04-28T05:23:28;100619.03;;;16.51;80.45
49461;BME280;35355;49.198;-0.368;2023-04-28T05:25:53;100619.84;;;16.52;80.64
49461;BME280;35355;49.198;-0.368;2023-04-28T05:28:19;100620.66;;;16.52;80.35
49461;BME280;35355;49.198;-0.368;2023-04-28T05:30:44;100622.28;;;16.53;80.62
49461;BME280;35355;49.198;-0.368;2023-04-28T05:33:10;100626.97;;;16.53;80.56
49461;BME280;35355;49.198;-0.368;2023-04-28T05:35:35;100621.47;;;16.53;80.33
49461;BME280;35355;49.198;-0.368;2023-04-28T05:38:01;100635.44;;;16.56;80.55
49461;BME280;35355;49.198;-0.368;2023-04-28T05:40:26;100640.34;;;16.59;80.23
49461;BME280;35355;49.198;-0.368;2023-04-28T05:42:52;100638.72;;;16.58;80.21
49461;BME280;35355;49.198;-0.368;2023-04-28T05:45:18;100636.16;;;16.62;80.19
49461;BME280;35355;49.198;-0.368;2023-04-28T05:47:43;100654.03;;;16.64;80.07
49461;BME280;35355;49.198;-0.368;2023-04-28T05:50:09;100650.69;;;16.67;80.04
49461;BME280;35355;49.198;-0.368;2023-04-28T05:52:34;100646.81;;;16.69;80.50
49461;BME280;35355;49.198;-0.368;2023-04-28T05:54:59;100648.72;;;16.68;79.96
49461;BME280;35355;49.198;-0.368;2023-04-28T05:57:25;100650.69;;;16.67;79.93
49461;BME280;35355;49.198;-0.368;2023-04-28T05:59:50;100656.19;;;16.67;80.00
49461;BME280;35355;49.198;-0.368;2023-04-28T06:02:16;100661.38;;;16.69;80.03
49461;BME280;35355;49.198;-0.368;2023-04-28T06:04:41;100662.19;;;16.70;79.88
49461;BME280;35355;49.198;-0.368;2023-04-28T06:07:08;100661.69;;;16.67;79.70
49461;BME280;35355;49.198;-0.368;2023-04-28T06:09:34;100661.69;;;16.67;79.93
49461;BME280;35355;49.198;-0.368;2023-04-28T06:11:59;100666.09;;;16.69;80.05
49461;BME280;35355;49.198;-0.368;2023-04-28T06:14:24;100663.34;;;16.69;80.00
49461;BME280;35355;49.198;-0.368;2023-04-28T06:16:50;100664.16;;;16.69;80.00
49461;BME280;35355;49.198;-0.368;2023-04-28T06:19:15;100661.91;;;16.71;79.77
49461;BME280;35355;49.198;-0.368;2023-04-28T06:21:43;100659.34;;;16.75;79.73
49461;BME280;35355;49.198;-0.368;2023-04-28T06:24:09;100670.06;;;16.76;80.03
49461;BME280;35355;49.198;-0.368;2023-04-28T06:26:34;100664.75;;;16.80;79.50
49461;BME280;35355;49.198;-0.368;2023-04-28T06:28:59;100670.50;;;16.83;79.64
49461;BME280;35355;49.198;-0.368;2023-04-28T06:31:25;100670.72;;;16.87;79.48
49461;BME280;35355;49.198;-0.368;2023-04-28T06:33:50;100667.34;;;16.90;79.29
49461;BME280;35355;49.198;-0.368;2023-04-28T06:36:16;100676.63;;;16.94;79.22
49461;BME280;35355;49.198;-0.368;2023-04-28T06:38:42;100680.31;;;17.04;79.30
49461;BME280;35355;49.198;-0.368;2023-04-28T06:41:09;100676.84;;;17.12;79.18
49461;BME280;35355;49.198;-0.368;2023-04-28T06:43:35;100682.28;;;17.17;78.74
49461;BME280;35355;49.198;-0.368;2023-04-28T06:46:01;100679.88;;;17.24;78.65
49461;BME280;35355;49.198;-0.368;2023-04-28T06:48:26;100689.09;;;17.33;78.26
49461;BME280;35355;49.198;-0.368;2023-04-28T06:50:52;100693.38;;;17.40;78.30
49461;BME280;35355;49.198;-0.368;2023-04-28T06:53:17;100691.94;;;17.42;77.95
49461;BME280;35355;49.198;-0.368;2023-04-28T06:55:43;100684.66;;;17.46;78.00
49461;BME280;35355;49.198;-0.368;2023-04-28T06:58:08;100687.00;;;17.53;78.14
49461;BME280;35355;49.198;-0.368;2023-04-28T07:00:34;100691.09;;;17.56;77.84
49461;BME280;35355;49.198;-0.368;2023-04-28T07:02:59;100692.03;;;17.51;77.60
49461;BME280;35355;49.198;-0.368;2023-04-28T07:05:25;100696.00;;;17.45;77.70
49461;BME280;35355;49.198;-0.368;2023-04-28T07:07:52;100698.66;;;17.50;77.41
49461;BME280;35355;49.198;-0.368;2023-04-28T07:10:17;100699.56;;;17.59;77.52
49461;BME280;35355;49.198;-0.368;2023-04-28T07:12:43;100695.63;;;17.74;77.35
49461;BME280;35355;49.198;-0.368;2023-04-28T07:15:09;100704.53;;;17.85;77.08
49461;BME280;35355;49.198;-0.368;2023-04-28T07:17:34;100698.88;;;17.90;76.79
49461;BME280;35355;49.198;-0.368;2023-04-28T07:19:59;100697.78;;;17.91;76.52
49461;BME280;35355;49.198;-0.368;2023-04-28T07:22:25;100704.91;;;17.92;76.14
49461;BME280;35355;49.198;-0.368;2023-04-28T07:24:51;100707.97;;;17.91;76.08
49461;BME280;35355;49.198;-0.368;2023-04-28T07:27:16;100715.47;;;17.90;75.53
49461;BME280;35355;49.198;-0.368;2023-04-28T07:29:42;100715.94;;;17.92;75.55
49461;BME280;35355;49.198;-0.368;2023-04-28T07:32:08;100723.50;;;18.00;75.38
49461;BME280;35355;49.198;-0.368;2023-04-28T07:34:34;100724.53;;;18.04;75.03
49461;BME280;35355;49.198;-0.368;2023-04-28T07:37:00;100726.97;;;18.06;74.80
49461;BME280;35355;49.198;-0.368;2023-04-28T07:39:26;100730.03;;;18.04;74.71
49461;BME280;35355;49.198;-0.368;2023-04-28T07:41:52;100728.22;;;18.00;74.34
49461;BME280;35355;49.198;-0.368;2023-04-28T07:44:18;100732.03;;;17.90;73.86
49461;BME280;35355;49.198;-0.368;2023-04-28T07:46:43;100743.59;;;17.78;73.60
49461;BME280;35355;49.198;-0.368;2023-04-28T07:49:09;100741.75;;;17.74;73.39
49461;BME280;35355;49.198;-0.368;2023-04-28T07:51:34;100741.84;;;17.68;73.46
49461;BME280;35355;49.198;-0.368;2023-04-28T07:53:59;100740.25;;;17.67;73.69
49461;BME280;35355;49.198;-0.368;2023-04-28T07:56:25;100746.06;;;17.66;73.55
49461;BME280;35355;49.198;-0.368;2023-04-28T07:58:51;100749.94;;;17.65;73.47
49461;BME280;35355;49.198;-0.368;2023-04-28T08:01:17;100755.28;;;17.61;73.40
49461;BME280;35355;49.198;-0.368;2023-04-28T08:03:42;100757.53;;;17.59;73.52
49461;BME280;35355;49.198;-0.368;2023-04-28T08:06:08;100760.81;;;17.61;73.24
49461;BME280;35355;49.198;-0.368;2023-04-28T08:08:33;100759.34;;;17.64;73.30
49461;BME280;35355;49.198;-0.368;2023-04-28T08:10:59;100769.78;;;17.67;73.18
49461;BME280;35355;49.198;-0.368;2023-04-28T08:13:24;100776.13;;;17.67;72.88
49461;BME280;35355;49.198;-0.368;2023-04-28T08:15:51;100764.88;;;17.64;72.90
49461;BME280;35355;49.198;-0.368;2023-04-28T08:18:16;100771.84;;;17.61;72.92
49461;BME280;35355;49.198;-0.368;2023-04-28T08:20:42;100778.47;;;17.60;72.87
49461;BME280;35355;49.198;-0.368;2023-04-28T08:23:08;100775.72;;;17.60;72.66
49461;BME280;35355;49.198;-0.368;2023-04-28T08:25:34;100777.88;;;17.63;72.61
49461;BME280;35355;49.198;-0.368;2023-04-28T08:27:59;100782.94;;;17.70;72.78
49461;BME280;35355;49.198;-0.368;2023-04-28T08:30:24;100779.88;;;17.71;72.50
49461;BME280;35355;49.198;-0.368;2023-04-28T08:32:50;100784.28;;;17.73;72.53
49461;BME280;35355;49.198;-0.368;2023-04-28T08:35:15;100786.13;;;17.77;72.18
49461;BME280;35355;49.198;-0.368;2023-04-28T08:37:41;100785.19;;;17.82;72.44
49461;BME280;35355;49.198;-0.368;2023-04-28T08:40:07;100780.38;;;17.87;72.12
49461;BME280;35355;49.198;-0.368;2023-04-28T08:42:36;100784.78;;;17.88;71.89
49461;BME280;35355;49.198;-0.368;2023-04-28T08:45:03;100781.72;;;17.90;71.95
49461;BME280;35355;49.198;-0.368;2023-04-28T08:47:33;100788.59;;;17.93;72.04
49461;BME280;35355;49.198;-0.368;2023-04-28T08:50:06;100783.56;;;17.95;72.09
49461;BME280;35355;49.198;-0.368;2023-04-28T08:52:32;100781.19;;;18.02;71.69
49461;BME280;35355;49.198;-0.368;2023-04-28T08:55:00;100788.53;;;18.06;71.54
49461;BME280;35355;49.198;-0.368;2023-04-28T08:57:27;100787.09;;;18.09;71.37
49461;BME280;35355;49.198;-0.368;2023-04-28T08:59:54;100802.25;;;18.12;71.49
49461;BME280;35355;49.198;-0.368;2023-04-28T09:02:19;100801.09;;;18.13;71.42
49461;BME280;35355;49.198;-0.368;2023-04-28T09:04:46;100801.63;;;18.15;71.10
49461;BME280;35355;49.198;-0.368;2023-04-28T09:07:12;100815.94;;;18.17;71.10
49461;BME280;35355;49.198;-0.368;2023-04-28T09:09:38;100808.97;;;18.19;70.96
49461;BME280;35355;49.198;-0.368;2023-04-28T09:12:05;100807.53;;;18.22;71.11
49461;BME280;35355;49.198;-0.368;2023-04-28T09:14:35;100814.06;;;18.26;71.23
49461;BME280;35355;49.198;-0.368;2023-04-28T09:17:01;100816.22;;;18.29;71.21
49461;BME280;35355;49.198;-0.368;2023-04-28T09:19:34;100813.81;;;18.36;71.50
49461;BME280;35355;49.198;-0.368;2023-04-28T09:22:00;100819.72;;;18.44;71.11
49461;BME280;35355;49.198;-0.368;2023-04-28T09:26:54;100826.75;;;18.50;71.15
49461;BME280;35355;49.198;-0.368;2023-04-28T09:29:20;100842.75;;;18.53;71.48
49461;BME280;35355;49.198;-0.368;2023-04-28T09:31:45;100826.03;;;18.58;71.08
49461;BME280;35355;49.198;-0.368;2023-04-28T09:34:11;100824.28;;;18.62;71.19
49461;BME280;35355;49.198;-0.368;2023-04-28T09:36:36;100835.19;;;18.67;70.91
49461;BME280;35355;49.198;-0.368;2023-04-28T09:39:02;100837.31;;;18.70;71.00
49461;BME280;35355;49.198;-0.368;2023-04-28T09:41:38;100830.34;;;18.73;71.29
49461;BME280;35355;49.198;-0.368;2023-04-28T09:44:17;100841.00;;;18.80;70.92
49461;BME280;35355;49.198;-0.368;2023-04-28T09:46:44;100847.63;;;18.79;69.98
49461;BME280;35355;49.198;-0.368;2023-04-28T09:49:11;100842.75;;;18.75;69.95
49461;BME280;35355;49.198;-0.368;2023-04-28T09:51:37;100847.63;;;18.79;69.73
49461;BME280;35355;49.198;-0.368;2023-04-28T09:54:03;100839.75;;;18.86;69.76
49461;BME280;35355;49.198;-0.368;2023-04-28T09:56:30;100844.50;;;18.94;69.80
49461;BME280;35355;49.198;-0.368;2023-04-28T09:59:00;100854.34;;;19.00;69.48
49461;BME280;35355;49.198;-0.368;2023-04-28T10:01:52;100860.03;;;19.04;70.12
49461;BME280;35355;49.198;-0.368;2023-04-28T10:04:17;100861.72;;;19.14;69.21
49461;BME280;35355;49.198;-0.368;2023-04-28T10:06:43;100851.84;;;19.21;68.95
49461;BME280;35355;49.198;-0.368;2023-04-28T10:09:09;100863.75;;;19.31;68.93
49461;BME280;35355;49.198;-0.368;2023-04-28T10:11:36;100851.59;;;19.40;68.56
49461;BME280;35355;49.198;-0.368;2023-04-28T10:14:03;100853.41;;;19.45;68.19
49461;BME280;35355;49.198;-0.368;2023-04-28T10:16:30;100856.53;;;19.52;67.78
49461;BME280;35355;49.198;-0.368;2023-04-28T10:18:56;100861.13;;;19.57;67.97
49461;BME280;35355;49.198;-0.368;2023-04-28T10:21:22;100855.59;;;19.66;68.09
49461;BME280;35355;49.198;-0.368;2023-04-28T10:24:17;100857.91;;;19.72;68.02
49461;BME280;35355;49.198;-0.368;2023-04-28T10:26:56;100854.16;;;19.68;67.37
49461;BME280;35355;49.198;-0.368;2023-04-28T10:29:26;100862.75;;;19.58;66.78
49461;BME280;35355;49.198;-0.368;2023-04-28T10:32:20;100861.06;;;19.48;67.39
49461;BME280;35355;49.198;-0.368;2023-04-28T10:34:47;100868.56;;;19.48;66.76
49461;BME280;35355;49.198;-0.368;2023-04-28T10:37:13;100869.56;;;19.52;66.76
49461;BME280;35355;49.198;-0.368;2023-04-28T10:42:55;100865.56;;;19.67;67.18
49461;BME280;35355;49.198;-0.368;2023-04-28T10:56:15;100871.06;;;19.98;65.83
49461;BME280;35355;49.198;-0.368;2023-04-28T10:58:43;100868.63;;;20.05;65.60
49461;BME280;35355;49.198;-0.368;2023-04-28T11:06:22;100881.88;;;20.43;65.69
49461;BME280;35355;49.198;-0.368;2023-04-28T11:08:53;100881.38;;;20.50;64.36
49461;BME280;35355;49.198;-0.368;2023-04-28T11:16:49;100888.91;;;20.49;64.43
49461;BME280;35355;49.198;-0.368;2023-04-28T11:19:20;100888.38;;;20.47;64.19
49461;BME280;35355;49.198;-0.368;2023-04-28T11:21:47;100891.81;;;20.44;63.96
49461;BME280;35355;49.198;-0.368;2023-04-28T11:24:13;100885.78;;;20.42;64.05
49461;BME280;35355;49.198;-0.368;2023-04-28T11:26:39;100889.69;;;20.41;63.86
49461;BME280;35355;49.198;-0.368;2023-04-28T11:29:04;100873.56;;;20.43;64.11
49461;BME280;35355;49.198;-0.368;2023-04-28T11:31:30;100888.38;;;20.47;64.02
49461;BME280;35355;49.198;-0.368;2023-04-28T11:33:58;100882.19;;;20.50;64.37
49461;BME280;35355;49.198;-0.368;2023-04-28T11:36:26;100876.63;;;20.50;63.73
49461;BME280;35355;49.198;-0.368;2023-04-28T11:38:53;100886.13;;;20.49;63.71
49461;BME280;35355;49.198;-0.368;2023-04-28T11:41:19;100888.38;;;20.47;63.71
49461;BME280;35355;49.198;-0.368;2023-04-28T11:43:44;100880.91;;;20.39;63.88
49461;BME280;35355;49.198;-0.368;2023-04-28T11:46:15;100896.88;;;20.42;64.05
49461;BME280;35355;49.198;-0.368;2023-04-28T11:48:40;100898.34;;;20.40;63.74
49461;BME280;35355;49.198;-0.368;2023-04-28T11:51:06;100899.31;;;20.35;63.46
49461;BME280;35355;49.198;-0.368;2023-04-28T11:53:44;100892.13;;;20.25;64.04
49461;BME280;35355;49.198;-0.368;2023-04-28T11:56:09;100891.16;;;20.21;63.37
49461;BME280;35355;49.198;-0.368;2023-04-28T11:58:37;100894.06;;;20.16;63.56
49461;BME280;35355;49.198;-0.368;2023-04-28T12:01:12;100892.91;;;20.08;63.92
49461;BME280;35355;49.198;-0.368;2023-04-28T12:03:45;100884.75;;;20.03;63.76
49461;BME280;35355;49.198;-0.368;2023-04-28T12:06:11;100887.34;;;20.00;63.63
49461;BME280;35355;49.198;-0.368;2023-04-28T12:08:41;100889.78;;;20.01;63.97
49461;BME280;35355;49.198;-0.368;2023-04-28T12:11:11;100893.56;;;20.05;63.86
49461;BME280;35355;49.198;-0.368;2023-04-28T12:13:40;100891.28;;;20.07;64.10
49461;BME280;35355;49.198;-0.368;2023-04-28T12:16:06;100898.47;;;20.08;63.93
49461;BME280;35355;49.198;-0.368;2023-04-28T12:18:33;100899.09;;;20.05;63.57
49461;BME280;35355;49.198;-0.368;2023-04-28T12:20:59;100887.03;;;20.01;63.39
49461;BME280;35355;49.198;-0.368;2023-04-28T12:23:32;100889.78;;;20.01;63.79
49461;BME280;35355;49.198;-0.368;2023-04-28T12:25:58;100903.00;;;20.04;63.78
49461;BME280;35355;49.198;-0.368;2023-04-28T12:28:35;100902.34;;;20.07;64.30
49461;BME280;35355;49.198;-0.368;2023-04-28T12:31:03;100905.31;;;20.11;63.77
49461;BME280;35355;49.198;-0.368;2023-04-28T12:33:29;100899.44;;;20.12;63.25
49461;BME280;35355;49.198;-0.368;2023-04-28T12:35:56;100901.56;;;20.15;63.42
49461;BME280;35355;49.198;-0.368;2023-04-28T12:38:22;100898.16;;;20.19;63.36
49461;BME280;35355;49.198;-0.368;2023-04-28T12:40:47;100896.03;;;20.24;63.44
49461;BME280;35355;49.198;-0.368;2023-04-28T12:43:13;100901.09;;;20.31;63.44
49461;BME280;35355;49.198;-0.368;2023-04-28T12:45:40;100906.97;;;20.38;63.02
49461;BME280;35355;49.198;-0.368;2023-04-28T12:48:05;100907.97;;;20.42;63.24
49461;BME280;35355;49.198;-0.368;2023-04-28T12:50:31;100913.34;;;20.47;62.78
49461;BME280;35355;49.198;-0.368;2023-04-28T12:52:57;100919.72;;;20.48;62.30
49461;BME280;35355;49.198;-0.368;2023-04-28T12:55:23;100908.97;;;20.46;62.43
49461;BME280;35355;49.198;-0.368;2023-04-28T12:57:48;100923.31;;;20.48;62.72
49461;BME280;35355;49.198;-0.368;2023-04-28T13:00:14;100926.41;;;20.47;62.52
49461;BME280;35355;49.198;-0.368;2023-04-28T13:02:42;100931.94;;;20.47;62.54
49461;BME280;35355;49.198;-0.368;2023-04-28T13:05:07;100933.59;;;20.48;62.26